sensor_id;sensor_type;location;lat;lon;timestamp;temperature;humidity
61591;DHT22;57639;52.410;-1.966;2023-06-26T00:01:15;22.30;59.40
61591;DHT22;57639;52.410;-1.966;2023-06-26T00:04:29;22.20;59.40
61591;DHT22;57639;52.410;-1.966;2023-06-26T00:07:38;22.20;59.20
61591;DHT22;57639;52.410;-1.966;2023-06-26T00:10:54;22.20;59.20
61591;DHT22;57639;52.410;-1.966;2023-06-26T00:14:17;22.20;59.30
61591;DHT22;57639;52.410;-1.966;2023-06-26T00:17:29;22.10;59.40
61591;DHT22;57639;52.410;-1.966;2023-06-26T00:20:39;22.10;59.30
61591;DHT22;57639;52.410;-1.966;2023-06-26T00:23:52;22.10;59.20
61591;DHT22;57639;52.410;-1.966;2023-06-26T00:26:58;22.10;59.30
61591;DHT22;57639;52.410;-1.966;2023-06-26T00:30:09;22.10;59.30
61591;DHT22;57639;52.410;-1.966;2023-06-26T00:33:16;22.10;59.40
61591;DHT22;57639;52.410;-1.966;2023-06-26T00:36:22;22.10;59.30
61591;DHT22;57639;52.410;-1.966;2023-06-26T00:39:34;22.10;59.30
61591;DHT22;57639;52.410;-1.966;2023-06-26T00:42:44;22.10;59.20
61591;DHT22;57639;52.410;-1.966;2023-06-26T00:45:58;22.10;59.10
61591;DHT22;57639;52.410;-1.966;2023-06-26T00:49:12;22.10;58.90
61591;DHT22;57639;52.410;-1.966;2023-06-26T00:52:38;22.10;59.20
61591;DHT22;57639;52.410;-1.966;2023-06-26T00:56:09;22.10;59.20
61591;DHT22;57639;52.410;-1.966;2023-06-26T00:59:21;22.10;59.20
61591;DHT22;57639;52.410;-1.966;2023-06-26T01:02:34;22.10;59.20
61591;DHT22;57639;52.410;-1.966;2023-06-26T01:05:45;22.10;59.10
61591;DHT22;57639;52.410;-1.966;2023-06-26T01:09:12;22.10;59.10
61591;DHT22;57639;52.410;-1.966;2023-06-26T01:12:33;22.10;58.90
61591;DHT22;57639;52.410;-1.966;2023-06-26T01:15:49;22.00;59.00
61591;DHT22;57639;52.410;-1.966;2023-06-26T01:19:03;22.00;58.80
61591;DHT22;57639;52.410;-1.966;2023-06-26T01:22:24;22.10;58.80
61591;DHT22;57639;52.410;-1.966;2023-06-26T01:25:49;22.00;58.70
61591;DHT22;57639;52.410;-1.966;2023-06-26T01:29:07;22.00;58.40
61591;DHT22;57639;52.410;-1.966;2023-06-26T01:32:21;22.00;58.30
61591;DHT22;57639;52.410;-1.966;2023-06-26T01:35:39;22.00;58.30
61591;DHT22;57639;52.410;-1.966;2023-06-26T01:38:52;22.00;58.10
61591;DHT22;57639;52.410;-1.966;2023-06-26T01:41:59;22.00;57.70
61591;DHT22;57639;52.410;-1.966;2023-06-26T01:45:27;22.00;57.80
61591;DHT22;57639;52.410;-1.966;2023-06-26T01:48:50;22.00;57.80
61591;DHT22;57639;52.410;-1.966;2023-06-26T01:52:07;21.90;57.90
61591;DHT22;57639;52.410;-1.966;2023-06-26T01:55:31;21.90;57.50
61591;DHT22;57639;52.410;-1.966;2023-06-26T01:58:54;21.90;57.30
61591;DHT22;57639;52.410;-1.966;2023-06-26T02:02:08;21.90;57.60
61591;DHT22;57639;52.410;-1.966;2023-06-26T02:05:39;21.90;57.50
61591;DHT22;57639;52.410;-1.966;2023-06-26T02:08:58;21.90;57.40
61591;DHT22;57639;52.410;-1.966;2023-06-26T02:12:10;21.90;57.50
61591;DHT22;57639;52.410;-1.966;2023-06-26T02:15:34;21.90;57.60
61591;DHT22;57639;52.410;-1.966;2023-06-26T02:19:02;21.90;57.50
61591;DHT22;57639;52.410;-1.966;2023-06-26T02:22:26;21.90;57.50
61591;DHT22;57639;52.410;-1.966;2023-06-26T02:25:53;21.80;57.70
61591;DHT22;57639;52.410;-1.966;2023-06-26T02:29:09;21.90;57.50
61591;DHT22;57639;52.410;-1.966;2023-06-26T02:32:38;21.80;57.40
61591;DHT22;57639;52.410;-1.966;2023-06-26T02:36:14;21.90;57.30
61591;DHT22;57639;52.410;-1.966;2023-06-26T02:39:38;21.80;57.40
61591;DHT22;57639;52.410;-1.966;2023-06-26T02:43:13;21.80;57.40
61591;DHT22;57639;52.410;-1.966;2023-06-26T02:46:39;21.80;57.30
61591;DHT22;57639;52.410;-1.966;2023-06-26T02:49:56;21.80;57.30
61591;DHT22;57639;52.410;-1.966;2023-06-26T02:53:15;21.80;57.20
61591;DHT22;57639;52.410;-1.966;2023-06-26T02:56:22;21.80;57.00
61591;DHT22;57639;52.410;-1.966;2023-06-26T02:59:40;21.80;56.90
61591;DHT22;57639;52.410;-1.966;2023-06-26T03:02:57;21.70;57.00
61591;DHT22;57639;52.410;-1.966;2023-06-26T03:06:13;21.80;57.00
61591;DHT22;57639;52.410;-1.966;2023-06-26T03:09:22;21.80;57.20
61591;DHT22;57639;52.410;-1.966;2023-06-26T03:12:29;21.70;57.00
61591;DHT22;57639;52.410;-1.966;2023-06-26T03:15:45;21.70;57.00
61591;DHT22;57639;52.410;-1.966;2023-06-26T03:19:03;21.70;57.00
61591;DHT22;57639;52.410;-1.966;2023-06-26T03:22:22;21.70;56.80
61591;DHT22;57639;52.410;-1.966;2023-06-26T03:25:35;21.70;57.10
61591;DHT22;57639;52.410;-1.966;2023-06-26T03:28:49;21.70;57.10
61591;DHT22;57639;52.410;-1.966;2023-06-26T03:31:59;21.70;57.00
61591;DHT22;57639;52.410;-1.966;2023-06-26T03:35:34;21.70;56.90
61591;DHT22;57639;52.410;-1.966;2023-06-26T03:39:03;21.70;57.00
61591;DHT22;57639;52.410;-1.966;2023-06-26T03:42:46;21.70;56.80
61591;DHT22;57639;52.410;-1.966;2023-06-26T03:45:59;21.70;56.30
61591;DHT22;57639;52.410;-1.966;2023-06-26T03:49:12;21.70;56.30
61591;DHT22;57639;52.410;-1.966;2023-06-26T03:52:53;21.70;56.50
61591;DHT22;57639;52.410;-1.966;2023-06-26T03:56:27;21.70;56.30
61591;DHT22;57639;52.410;-1.966;2023-06-26T03:59:40;21.60;56.10
61591;DHT22;57639;52.410;-1.966;2023-06-26T04:03:06;21.60;56.10
61591;DHT22;57639;52.410;-1.966;2023-06-26T04:06:36;21.70;56.10
61591;DHT22;57639;52.410;-1.966;2023-06-26T04:10:02;21.60;55.90
61591;DHT22;57639;52.410;-1.966;2023-06-26T04:13:41;21.60;56.20
61591;DHT22;57639;52.410;-1.966;2023-06-26T04:17:18;21.60;56.00
61591;DHT22;57639;52.410;-1.966;2023-06-26T04:21:11;21.60;55.90
61591;DHT22;57639;52.410;-1.966;2023-06-26T04:24:27;21.60;56.00
61591;DHT22;57639;52.410;-1.966;2023-06-26T04:27:43;21.60;55.70
61591;DHT22;57639;52.410;-1.966;2023-06-26T04:31:12;21.60;55.90
61591;DHT22;57639;52.410;-1.966;2023-06-26T04:34:31;21.60;55.40
61591;DHT22;57639;52.410;-1.966;2023-06-26T04:37:58;21.60;55.10
61591;DHT22;57639;52.410;-1.966;2023-06-26T04:44:47;21.60;54.90
61591;DHT22;57639;52.410;-1.966;2023-06-26T04:47:55;21.60;54.80
61591;DHT22;57639;52.410;-1.966;2023-06-26T04:51:12;21.60;55.10
61591;DHT22;57639;52.410;-1.966;2023-06-26T04:54:27;21.70;54.80
61591;DHT22;57639;52.410;-1.966;2023-06-26T04:57:37;21.60;54.70
61591;DHT22;57639;52.410;-1.966;2023-06-26T05:00:55;21.60;54.80
61591;DHT22;57639;52.410;-1.966;2023-06-26T05:04:06;21.60;54.90
61591;DHT22;57639;52.410;-1.966;2023-06-26T05:07:24;21.60;54.70
61591;DHT22;57639;52.410;-1.966;2023-06-26T05:10:49;21.60;54.50
61591;DHT22;57639;52.410;-1.966;2023-06-26T05:14:15;21.60;54.80
61591;DHT22;57639;52.410;-1.966;2023-06-26T05:17:27;21.60;54.80
61591;DHT22;57639;52.410;-1.966;2023-06-26T05:20:44;21.60;54.80
61591;DHT22;57639;52.410;-1.966;2023-06-26T05:23:58;21.60;54.70
61591;DHT22;57639;52.410;-1.966;2023-06-26T05:27:08;21.60;54.70
61591;DHT22;57639;52.410;-1.966;2023-06-26T05:30:30;21.60;54.70
61591;DHT22;57639;52.410;-1.966;2023-06-26T05:33:39;21.60;54.60
61591;DHT22;57639;52.410;-1.966;2023-06-26T05:36:54;21.60;54.70
61591;DHT22;57639;52.410;-1.966;2023-06-26T05:40:07;21.60;54.50
61591;DHT22;57639;52.410;-1.966;2023-06-26T05:43:16;21.50;54.60
61591;DHT22;57639;52.410;-1.966;2023-06-26T05:46:24;21.60;54.40
61591;DHT22;57639;52.410;-1.966;2023-06-26T05:49:33;21.60;54.20
61591;DHT22;57639;52.410;-1.966;2023-06-26T05:52:45;21.50;54.20
61591;DHT22;57639;52.410;-1.966;2023-06-26T05:55:57;21.60;54.30
61591;DHT22;57639;52.410;-1.966;2023-06-26T05:59:05;21.50;54.20
61591;DHT22;57639;52.410;-1.966;2023-06-26T06:02:12;21.50;54.30
61591;DHT22;57639;52.410;-1.966;2023-06-26T06:05:23;21.50;54.20
61591;DHT22;57639;52.410;-1.966;2023-06-26T06:08:33;21.50;54.20
61591;DHT22;57639;52.410;-1.966;2023-06-26T06:11:52;21.40;54.10
61591;DHT22;57639;52.410;-1.966;2023-06-26T06:15:00;21.50;54.10
61591;DHT22;57639;52.410;-1.966;2023-06-26T06:18:13;21.40;54.00
61591;DHT22;57639;52.410;-1.966;2023-06-26T06:21:20;21.40;54.10
61591;DHT22;57639;52.410;-1.966;2023-06-26T06:24:27;21.40;54.20
61591;DHT22;57639;52.410;-1.966;2023-06-26T06:27:36;21.40;54.20
61591;DHT22;57639;52.410;-1.966;2023-06-26T06:30:45;21.50;54.30
61591;DHT22;57639;52.410;-1.966;2023-06-26T06:33:53;21.50;54.30
61591;DHT22;57639;52.410;-1.966;2023-06-26T06:37:00;21.40;54.30
61591;DHT22;57639;52.410;-1.966;2023-06-26T06:40:09;21.40;54.30
61591;DHT22;57639;52.410;-1.966;2023-06-26T06:43:28;21.50;54.20
61591;DHT22;57639;52.410;-1.966;2023-06-26T06:46:37;21.50;54.30
61591;DHT22;57639;52.410;-1.966;2023-06-26T06:49:49;21.50;54.30
61591;DHT22;57639;52.410;-1.966;2023-06-26T06:52:56;21.50;54.30
61591;DHT22;57639;52.410;-1.966;2023-06-26T06:56:05;21.50;54.20
61591;DHT22;57639;52.410;-1.966;2023-06-26T06:59:15;21.50;54.20
61591;DHT22;57639;52.410;-1.966;2023-06-26T07:02:26;21.50;54.20
61591;DHT22;57639;52.410;-1.966;2023-06-26T07:05:35;21.50;53.70
61591;DHT22;57639;52.410;-1.966;2023-06-26T07:08:42;21.60;53.40
61591;DHT22;57639;52.410;-1.966;2023-06-26T07:11:49;21.60;55.00
61591;DHT22;57639;52.410;-1.966;2023-06-26T07:15:08;21.60;55.70
61591;DHT22;57639;52.410;-1.966;2023-06-26T07:18:18;21.60;55.60
61591;DHT22;57639;52.410;-1.966;2023-06-26T07:21:25;21.60;54.50
61591;DHT22;57639;52.410;-1.966;2023-06-26T07:24:35;21.60;55.50
61591;DHT22;57639;52.410;-1.966;2023-06-26T07:27:44;21.60;55.70
61591;DHT22;57639;52.410;-1.966;2023-06-26T07:30:53;21.60;56.20
61591;DHT22;57639;52.410;-1.966;2023-06-26T07:34:01;21.60;56.00
61591;DHT22;57639;52.410;-1.966;2023-06-26T07:37:08;21.60;56.40
61591;DHT22;57639;52.410;-1.966;2023-06-26T07:40:35;21.60;56.40
61591;DHT22;57639;52.410;-1.966;2023-06-26T07:43:41;21.60;56.70
61591;DHT22;57639;52.410;-1.966;2023-06-26T07:46:50;21.60;56.50
61591;DHT22;57639;52.410;-1.966;2023-06-26T07:49:57;21.60;56.50
61591;DHT22;57639;52.410;-1.966;2023-06-26T07:53:03;21.60;57.00
61591;DHT22;57639;52.410;-1.966;2023-06-26T07:56:09;21.60;57.10
61591;DHT22;57639;52.410;-1.966;2023-06-26T07:59:17;21.60;56.90
61591;DHT22;57639;52.410;-1.966;2023-06-26T08:02:27;21.60;56.30
61591;DHT22;57639;52.410;-1.966;2023-06-26T08:05:33;21.60;56.00
61591;DHT22;57639;52.410;-1.966;2023-06-26T08:08:41;21.60;55.90
61591;DHT22;57639;52.410;-1.966;2023-06-26T08:11:48;21.60;55.70
61591;DHT22;57639;52.410;-1.966;2023-06-26T08:14:57;21.60;55.70
61591;DHT22;57639;52.410;-1.966;2023-06-26T08:18:09;21.60;55.90
61591;DHT22;57639;52.410;-1.966;2023-06-26T08:21:15;21.60;56.00
61591;DHT22;57639;52.410;-1.966;2023-06-26T08:24:22;21.60;55.60
61591;DHT22;57639;52.410;-1.966;2023-06-26T08:27:28;21.60;56.00
61591;DHT22;57639;52.410;-1.966;2023-06-26T08:30:34;21.60;56.20
61591;DHT22;57639;52.410;-1.966;2023-06-26T08:33:44;21.60;56.20
61591;DHT22;57639;52.410;-1.966;2023-06-26T08:36:50;21.60;55.90
61591;DHT22;57639;52.410;-1.966;2023-06-26T08:39:56;21.60;56.10
61591;DHT22;57639;52.410;-1.966;2023-06-26T08:43:02;21.70;56.00
61591;DHT22;57639;52.410;-1.966;2023-06-26T08:46:09;21.70;56.20
61591;DHT22;57639;52.410;-1.966;2023-06-26T08:49:20;21.80;55.90
61591;DHT22;57639;52.410;-1.966;2023-06-26T08:52:30;21.70;56.10
61591;DHT22;57639;52.410;-1.966;2023-06-26T08:55:41;21.70;56.40
61591;DHT22;57639;52.410;-1.966;2023-06-26T08:58:49;21.70;56.30
61591;DHT22;57639;52.410;-1.966;2023-06-26T09:01:56;21.70;56.60
61591;DHT22;57639;52.410;-1.966;2023-06-26T09:05:05;21.80;56.40
61591;DHT22;57639;52.410;-1.966;2023-06-26T09:08:11;21.70;55.80
61591;DHT22;57639;52.410;-1.966;2023-06-26T09:11:19;21.70;56.10
61591;DHT22;57639;52.410;-1.966;2023-06-26T09:14:25;21.60;57.30
61591;DHT22;57639;52.410;-1.966;2023-06-26T09:17:38;21.60;57.50
61591;DHT22;57639;52.410;-1.966;2023-06-26T09:20:47;21.70;57.30
61591;DHT22;57639;52.410;-1.966;2023-06-26T09:23:53;21.70;56.80
61591;DHT22;57639;52.410;-1.966;2023-06-26T09:27:01;21.70;56.60
61591;DHT22;57639;52.410;-1.966;2023-06-26T09:30:08;21.80;56.70
61591;DHT22;57639;52.410;-1.966;2023-06-26T09:33:15;21.80;56.40
61591;DHT22;57639;52.410;-1.966;2023-06-26T09:36:27;21.80;56.70
61591;DHT22;57639;52.410;-1.966;2023-06-26T09:39:38;21.80;56.40
61591;DHT22;57639;52.410;-1.966;2023-06-26T09:42:45;21.80;56.10
61591;DHT22;57639;52.410;-1.966;2023-06-26T09:45:51;21.80;56.30
61591;DHT22;57639;52.410;-1.966;2023-06-26T09:48:59;21.80;56.00
61591;DHT22;57639;52.410;-1.966;2023-06-26T09:52:09;21.80;56.70
61591;DHT22;57639;52.410;-1.966;2023-06-26T09:55:15;21.80;56.70
61591;DHT22;57639;52.410;-1.966;2023-06-26T09:58:23;21.80;56.70
61591;DHT22;57639;52.410;-1.966;2023-06-26T10:01:31;21.80;56.60
61591;DHT22;57639;52.410;-1.966;2023-06-26T10:04:38;21.80;56.20
61591;DHT22;57639;52.410;-1.966;2023-06-26T10:07:47;21.80;56.00
61591;DHT22;57639;52.410;-1.966;2023-06-26T10:10:54;21.80;56.00
61591;DHT22;57639;52.410;-1.966;2023-06-26T10:14:01;21.80;56.00
61591;DHT22;57639;52.410;-1.966;2023-06-26T10:17:11;21.80;56.90
61591;DHT22;57639;52.410;-1.966;2023-06-26T10:20:18;21.80;56.60
61591;DHT22;57639;52.410;-1.966;2023-06-26T10:23:28;21.90;56.70
61591;DHT22;57639;52.410;-1.966;2023-06-26T10:26:42;21.90;56.60
61591;DHT22;57639;52.410;-1.966;2023-06-26T10:30:04;22.00;56.30
61591;DHT22;57639;52.410;-1.966;2023-06-26T10:33:12;22.00;56.30
61591;DHT22;57639;52.410;-1.966;2023-06-26T10:36:20;22.00;56.10
61591;DHT22;57639;52.410;-1.966;2023-06-26T10:39:52;22.10;56.00
61591;DHT22;57639;52.410;-1.966;2023-06-26T10:43:08;22.10;56.00
61591;DHT22;57639;52.410;-1.966;2023-06-26T10:46:15;22.10;56.20
61591;DHT22;57639;52.410;-1.966;2023-06-26T10:49:25;22.10;56.30
61591;DHT22;57639;52.410;-1.966;2023-06-26T10:52:36;22.10;57.10
61591;DHT22;57639;52.410;-1.966;2023-06-26T10:55:49;22.10;58.20
61591;DHT22;57639;52.410;-1.966;2023-06-26T10:59:13;22.10;58.60
61591;DHT22;57639;52.410;-1.966;2023-06-26T11:02:19;22.10;57.90
61591;DHT22;57639;52.410;-1.966;2023-06-26T11:05:26;22.00;57.50
61591;DHT22;57639;52.410;-1.966;2023-06-26T11:08:44;22.00;57.70
61591;DHT22;57639;52.410;-1.966;2023-06-26T11:12:00;22.10;58.20
61591;DHT22;57639;52.410;-1.966;2023-06-26T11:15:13;22.10;57.90
61591;DHT22;57639;52.410;-1.966;2023-06-26T11:18:20;22.10;57.80
61591;DHT22;57639;52.410;-1.966;2023-06-26T11:21:27;22.10;58.10
61591;DHT22;57639;52.410;-1.966;2023-06-26T11:24:33;22.10;58.50
61591;DHT22;57639;52.410;-1.966;2023-06-26T11:27:45;22.10;58.20
61591;DHT22;57639;52.410;-1.966;2023-06-26T11:30:52;22.20;58.30
61591;DHT22;57639;52.410;-1.966;2023-06-26T11:34:00;22.20;58.20
61591;DHT22;57639;52.410;-1.966;2023-06-26T11:37:06;22.20;58.10
61591;DHT22;57639;52.410;-1.966;2023-06-26T11:40:18;22.20;58.20
61591;DHT22;57639;52.410;-1.966;2023-06-26T11:43:28;22.20;58.10
61591;DHT22;57639;52.410;-1.966;2023-06-26T11:46:34;22.20;57.80
61591;DHT22;57639;52.410;-1.966;2023-06-26T11:49:42;22.30;57.70
61591;DHT22;57639;52.410;-1.966;2023-06-26T11:52:53;22.20;57.70
61591;DHT22;57639;52.410;-1.966;2023-06-26T11:56:07;22.20;57.50
61591;DHT22;57639;52.410;-1.966;2023-06-26T11:59:19;22.20;57.40
61591;DHT22;57639;52.410;-1.966;2023-06-26T12:02:26;22.30;57.00
61591;DHT22;57639;52.410;-1.966;2023-06-26T12:05:32;22.20;56.60
61591;DHT22;57639;52.410;-1.966;2023-06-26T12:08:39;22.30;56.40
61591;DHT22;57639;52.410;-1.966;2023-06-26T12:11:47;22.30;56.30
61591;DHT22;57639;52.410;-1.966;2023-06-26T12:14:57;22.20;56.30
61591;DHT22;57639;52.410;-1.966;2023-06-26T12:18:10;22.20;56.40
61591;DHT22;57639;52.410;-1.966;2023-06-26T12:24:38;22.30;56.40
61591;DHT22;57639;52.410;-1.966;2023-06-26T12:27:46;22.20;56.00
61591;DHT22;57639;52.410;-1.966;2023-06-26T12:31:16;22.20;56.10
61591;DHT22;57639;52.410;-1.966;2023-06-26T12:34:27;22.20;55.70
61591;DHT22;57639;52.410;-1.966;2023-06-26T12:37:36;22.20;55.70
61591;DHT22;57639;52.410;-1.966;2023-06-26T12:40:46;22.20;55.70
61591;DHT22;57639;52.410;-1.966;2023-06-26T12:43:56;22.20;55.80
61591;DHT22;57639;52.410;-1.966;2023-06-26T12:47:05;22.20;55.60
61591;DHT22;57639;52.410;-1.966;2023-06-26T12:50:12;22.20;55.40
61591;DHT22;57639;52.410;-1.966;2023-06-26T12:53:19;22.20;55.60
61591;DHT22;57639;52.410;-1.966;2023-06-26T12:56:26;22.10;55.80
61591;DHT22;57639;52.410;-1.966;2023-06-26T12:59:32;22.10;55.80
61591;DHT22;57639;52.410;-1.966;2023-06-26T13:02:42;22.10;55.70
61591;DHT22;57639;52.410;-1.966;2023-06-26T13:05:48;22.10;56.00
61591;DHT22;57639;52.410;-1.966;2023-06-26T13:08:54;22.10;56.10
61591;DHT22;57639;52.410;-1.966;2023-06-26T13:12:01;22.10;56.40
61591;DHT22;57639;52.410;-1.966;2023-06-26T13:15:09;22.10;56.80
61591;DHT22;57639;52.410;-1.966;2023-06-26T13:18:21;22.10;56.60
61591;DHT22;57639;52.410;-1.966;2023-06-26T13:21:28;22.20;56.50
61591;DHT22;57639;52.410;-1.966;2023-06-26T13:24:34;22.10;56.30
61591;DHT22;57639;52.410;-1.966;2023-06-26T13:27:40;22.20;56.30
61591;DHT22;57639;52.410;-1.966;2023-06-26T13:30:47;22.10;56.20
61591;DHT22;57639;52.410;-1.966;2023-06-26T13:33:57;22.20;56.10
61591;DHT22;57639;52.410;-1.966;2023-06-26T13:37:03;22.20;55.90
61591;DHT22;57639;52.410;-1.966;2023-06-26T13:40:10;22.20;55.50
61591;DHT22;57639;52.410;-1.966;2023-06-26T13:43:19;22.20;55.50
61591;DHT22;57639;52.410;-1.966;2023-06-26T13:46:28;22.20;55.40
61591;DHT22;57639;52.410;-1.966;2023-06-26T13:49:37;22.20;55.70
61591;DHT22;57639;52.410;-1.966;2023-06-26T13:52:45;22.20;55.90
61591;DHT22;57639;52.410;-1.966;2023-06-26T13:55:52;22.20;56.00
61591;DHT22;57639;52.410;-1.966;2023-06-26T13:58:58;22.20;55.90
61591;DHT22;57639;52.410;-1.966;2023-06-26T14:02:05;22.20;55.70
61591;DHT22;57639;52.410;-1.966;2023-06-26T14:05:16;22.20;55.90
61591;DHT22;57639;52.410;-1.966;2023-06-26T14:08:22;22.20;56.10
61591;DHT22;57639;52.410;-1.966;2023-06-26T14:11:28;22.20;56.10
61591;DHT22;57639;52.410;-1.966;2023-06-26T14:14:35;22.20;56.20
61591;DHT22;57639;52.410;-1.966;2023-06-26T14:17:42;22.20;56.20
61591;DHT22;57639;52.410;-1.966;2023-06-26T14:20:51;22.20;56.10
61591;DHT22;57639;52.410;-1.966;2023-06-26T14:23:57;22.20;56.10
61591;DHT22;57639;52.410;-1.966;2023-06-26T14:27:04;22.30;56.10
61591;DHT22;57639;52.410;-1.966;2023-06-26T14:30:11;22.30;56.10
61591;DHT22;57639;52.410;-1.966;2023-06-26T14:33:17;22.30;56.10
61591;DHT22;57639;52.410;-1.966;2023-06-26T14:36:26;22.30;56.10
61591;DHT22;57639;52.410;-1.966;2023-06-26T14:39:34;22.30;56.10
61591;DHT22;57639;52.410;-1.966;2023-06-26T14:42:41;22.30;56.10
61591;DHT22;57639;52.410;-1.966;2023-06-26T14:45:49;22.30;56.00
61591;DHT22;57639;52.410;-1.966;2023-06-26T14:48:55;22.30;56.00
61591;DHT22;57639;52.410;-1.966;2023-06-26T14:52:05;22.30;56.00
61591;DHT22;57639;52.410;-1.966;2023-06-26T14:55:11;22.30;56.00
61591;DHT22;57639;52.410;-1.966;2023-06-26T14:58:18;22.30;55.90
61591;DHT22;57639;52.410;-1.966;2023-06-26T15:01:24;22.30;56.00
61591;DHT22;57639;52.410;-1.966;2023-06-26T15:04:32;22.30;56.10
61591;DHT22;57639;52.410;-1.966;2023-06-26T15:07:41;22.30;56.10
61591;DHT22;57639;52.410;-1.966;2023-06-26T15:10:47;22.30;56.20
61591;DHT22;57639;52.410;-1.966;2023-06-26T15:13:54;22.30;56.30
61591;DHT22;57639;52.410;-1.966;2023-06-26T15:17:01;22.30;56.40
61591;DHT22;57639;52.410;-1.966;2023-06-26T15:20:08;22.30;56.30
61591;DHT22;57639;52.410;-1.966;2023-06-26T15:23:17;22.30;56.40
61591;DHT22;57639;52.410;-1.966;2023-06-26T15:26:23;22.20;56.50
61591;DHT22;57639;52.410;-1.966;2023-06-26T15:29:29;22.20;56.60
61591;DHT22;57639;52.410;-1.966;2023-06-26T15:32:36;22.20;56.50
61591;DHT22;57639;52.410;-1.966;2023-06-26T15:35:42;22.30;56.50
61591;DHT22;57639;52.410;-1.966;2023-06-26T15:38:51;22.30;56.40
61591;DHT22;57639;52.410;-1.966;2023-06-26T15:41:57;22.30;56.40
61591;DHT22;57639;52.410;-1.966;2023-06-26T15:45:06;22.30;56.40
61591;DHT22;57639;52.410;-1.966;2023-06-26T15:48:13;22.30;56.40
61591;DHT22;57639;52.410;-1.966;2023-06-26T15:51:19;22.40;56.40
61591;DHT22;57639;52.410;-1.966;2023-06-26T15:54:32;22.30;56.50
61591;DHT22;57639;52.410;-1.966;2023-06-26T15:57:39;22.40;57.00
61591;DHT22;57639;52.410;-1.966;2023-06-26T16:00:45;22.40;57.70
61591;DHT22;57639;52.410;-1.966;2023-06-26T16:03:51;22.40;58.80
61591;DHT22;57639;52.410;-1.966;2023-06-26T16:06:58;22.40;57.40
61591;DHT22;57639;52.410;-1.966;2023-06-26T16:10:08;22.40;57.10
61591;DHT22;57639;52.410;-1.966;2023-06-26T16:13:16;22.40;57.10
61591;DHT22;57639;52.410;-1.966;2023-06-26T16:16:25;22.40;56.90
61591;DHT22;57639;52.410;-1.966;2023-06-26T16:19:33;22.40;56.90
61591;DHT22;57639;52.410;-1.966;2023-06-26T16:22:39;22.40;56.80
61591;DHT22;57639;52.410;-1.966;2023-06-26T16:25:49;22.40;56.70
61591;DHT22;57639;52.410;-1.966;2023-06-26T16:28:55;22.40;56.80
61591;DHT22;57639;52.410;-1.966;2023-06-26T16:32:10;22.40;56.80
61591;DHT22;57639;52.410;-1.966;2023-06-26T16:35:17;22.40;56.90
61591;DHT22;57639;52.410;-1.966;2023-06-26T16:38:25;22.40;56.90
61591;DHT22;57639;52.410;-1.966;2023-06-26T16:41:34;22.40;56.90
61591;DHT22;57639;52.410;-1.966;2023-06-26T16:44:40;22.40;56.80
61591;DHT22;57639;52.410;-1.966;2023-06-26T16:47:47;22.50;56.70
61591;DHT22;57639;52.410;-1.966;2023-06-26T16:50:53;22.50;56.50
61591;DHT22;57639;52.410;-1.966;2023-06-26T16:53:59;22.40;56.60
61591;DHT22;57639;52.410;-1.966;2023-06-26T16:57:09;22.40;56.40
61591;DHT22;57639;52.410;-1.966;2023-06-26T17:00:16;22.40;56.40
61591;DHT22;57639;52.410;-1.966;2023-06-26T17:03:23;22.40;56.40
61591;DHT22;57639;52.410;-1.966;2023-06-26T17:06:31;22.40;56.40
61591;DHT22;57639;52.410;-1.966;2023-06-26T17:09:38;22.40;56.40
61591;DHT22;57639;52.410;-1.966;2023-06-26T17:12:47;22.40;56.30
61591;DHT22;57639;52.410;-1.966;2023-06-26T17:15:54;22.40;56.20
61591;DHT22;57639;52.410;-1.966;2023-06-26T17:19:00;22.40;56.30
61591;DHT22;57639;52.410;-1.966;2023-06-26T17:22:07;22.40;56.20
61591;DHT22;57639;52.410;-1.966;2023-06-26T17:25:13;22.30;56.10
61591;DHT22;57639;52.410;-1.966;2023-06-26T17:28:22;22.40;56.20
61591;DHT22;57639;52.410;-1.966;2023-06-26T17:31:28;22.40;56.00
61591;DHT22;57639;52.410;-1.966;2023-06-26T17:34:36;22.40;55.90
61591;DHT22;57639;52.410;-1.966;2023-06-26T17:37:43;22.40;56.00
61591;DHT22;57639;52.410;-1.966;2023-06-26T17:40:49;22.40;56.00
61591;DHT22;57639;52.410;-1.966;2023-06-26T17:43:58;22.40;56.00
61591;DHT22;57639;52.410;-1.966;2023-06-26T17:47:08;22.30;55.90
61591;DHT22;57639;52.410;-1.966;2023-06-26T17:50:14;22.30;55.80
61591;DHT22;57639;52.410;-1.966;2023-06-26T17:53:21;22.30;56.00
61591;DHT22;57639;52.410;-1.966;2023-06-26T17:56:27;22.20;56.10
61591;DHT22;57639;52.410;-1.966;2023-06-26T17:59:36;22.20;56.00
61591;DHT22;57639;52.410;-1.966;2023-06-26T18:02:43;22.20;56.10
61591;DHT22;57639;52.410;-1.966;2023-06-26T18:05:49;22.20;56.10
61591;DHT22;57639;52.410;-1.966;2023-06-26T18:08:55;22.20;56.60
61591;DHT22;57639;52.410;-1.966;2023-06-26T18:12:02;22.20;57.20
61591;DHT22;57639;52.410;-1.966;2023-06-26T18:15:11;22.10;57.40
61591;DHT22;57639;52.410;-1.966;2023-06-26T18:18:18;22.20;57.70
61591;DHT22;57639;52.410;-1.966;2023-06-26T18:21:25;22.30;57.70
61591;DHT22;57639;52.410;-1.966;2023-06-26T18:24:31;22.30;57.70
61591;DHT22;57639;52.410;-1.966;2023-06-26T18:27:41;22.30;58.00
61591;DHT22;57639;52.410;-1.966;2023-06-26T18:30:50;22.40;58.60
61591;DHT22;57639;52.410;-1.966;2023-06-26T18:33:57;22.40;59.90
61591;DHT22;57639;52.410;-1.966;2023-06-26T18:37:03;22.40;61.30
61591;DHT22;57639;52.410;-1.966;2023-06-26T18:40:11;22.50;61.80
61591;DHT22;57639;52.410;-1.966;2023-06-26T18:43:20;22.60;63.30
61591;DHT22;57639;52.410;-1.966;2023-06-26T18:46:30;22.60;65.40
61591;DHT22;57639;52.410;-1.966;2023-06-26T18:49:36;22.60;66.70
61591;DHT22;57639;52.410;-1.966;2023-06-26T18:52:43;22.50;65.80
61591;DHT22;57639;52.410;-1.966;2023-06-26T18:55:55;22.60;65.20
61591;DHT22;57639;52.410;-1.966;2023-06-26T18:59:02;22.50;64.60
61591;DHT22;57639;52.410;-1.966;2023-06-26T19:02:12;22.60;64.20
61591;DHT22;57639;52.410;-1.966;2023-06-26T19:05:18;22.60;63.70
61591;DHT22;57639;52.410;-1.966;2023-06-26T19:08:25;22.60;63.50
61591;DHT22;57639;52.410;-1.966;2023-06-26T19:11:36;22.50;62.70
61591;DHT22;57639;52.410;-1.966;2023-06-26T19:14:42;22.50;61.40
61591;DHT22;57639;52.410;-1.966;2023-06-26T19:17:52;22.50;61.00
61591;DHT22;57639;52.410;-1.966;2023-06-26T19:21:00;22.40;59.90
61591;DHT22;57639;52.410;-1.966;2023-06-26T19:24:07;22.40;59.60
61591;DHT22;57639;52.410;-1.966;2023-06-26T19:27:13;22.30;58.70
61591;DHT22;57639;52.410;-1.966;2023-06-26T19:30:20;22.20;58.90
61591;DHT22;57639;52.410;-1.966;2023-06-26T19:33:32;22.20;58.60
61591;DHT22;57639;52.410;-1.966;2023-06-26T19:36:39;22.20;58.00
61591;DHT22;57639;52.410;-1.966;2023-06-26T19:39:45;22.20;58.00
61591;DHT22;57639;52.410;-1.966;2023-06-26T19:42:51;22.20;58.10
61591;DHT22;57639;52.410;-1.966;2023-06-26T19:45:59;22.20;58.10
61591;DHT22;57639;52.410;-1.966;2023-06-26T19:49:09;22.10;57.80
61591;DHT22;57639;52.410;-1.966;2023-06-26T19:52:16;22.10;57.70
61591;DHT22;57639;52.410;-1.966;2023-06-26T19:55:23;22.10;57.90